PWSweather.com
Personal Weather Stations
Station Observations
NAGEO265NE
Bedzin GrodziecPL 42-506

Bedzin GrodziecPL 42-506

Lat: 50.347, Lon: 19.079

Elevation: 948

Station Type: WH1080

http://www.meteo-grodziec.pl/

High Low Average
Temperature 70.2°F21.2°C 59.0°F15.0°C 63.5°F17.5°C
Dew Point 63.7°F17.6°C 57.9°F14.4°C 61.0°F16.1°C
Winds 4.0 mph 6.4 kmh Calm Calm Calm SECalm SE
Wind Gusts 7.0 mph11.3 kmh -- 1.0 mph1.6 kmh
Humidity 96% 78% 92%
Pressure 29.92 in1013.2 mb 29.89 in1012.2 mb -
Precipitation 0.09 in2.3 mm - -
Hour Temp Dew Point Humidity Winds Wind Gusts Pressure Precip Precip Rate Daily Precip Total
12:00 AM 61.5°F16.4°C 59.9°F15.5°C 94% Calm Calm 1.0 mph1.6 kmh 29.92 in1013.2 mb 0.00 in0.0 mm 0.00 in0.0 mm 0.00 in0.0 mm
12:05 AM 61.5°F16.4°C 59.7°F15.4°C 94% Calm Calm 1.0 mph1.6 kmh 29.92 in1013.2 mb 0.00 in0.0 mm 0.00 in0.0 mm 0.00 in0.0 mm
12:10 AM 61.3°F16.3°C 59.7°F15.4°C 94% Calm Calm 2.0 mph3.2 kmh 29.92 in1013.2 mb 0.00 in0.0 mm 0.00 in0.0 mm 0.00 in0.0 mm
12:15 AM 61.3°F16.3°C 59.5°F15.3°C 94% Calm Calm 2.0 mph3.2 kmh 29.92 in1013.2 mb 0.00 in0.0 mm 0.00 in0.0 mm 0.00 in0.0 mm
12:20 AM 61.3°F16.3°C 59.7°F15.4°C 94% Calm Calm 1.0 mph1.6 kmh 29.91 in1012.9 mb 0.00 in0.0 mm 0.00 in0.0 mm 0.00 in0.0 mm
12:25 AM 61.3°F16.3°C 59.7°F15.4°C 94% Calm Calm 1.0 mph1.6 kmh 29.91 in1012.9 mb 0.00 in0.0 mm 0.00 in0.0 mm 0.00 in0.0 mm
12:30 AM 61.5°F16.4°C 59.7°F15.4°C 94% Calm Calm 1.0 mph1.6 kmh 29.91 in1012.9 mb 0.00 in0.0 mm 0.00 in0.0 mm 0.00 in0.0 mm
12:35 AM 61.3°F16.3°C 59.7°F15.4°C 94% Calm Calm -- 29.91 in1012.9 mb 0.00 in0.0 mm 0.00 in0.0 mm 0.00 in0.0 mm
12:40 AM 61.3°F16.3°C 59.7°F15.4°C 94% Calm Calm -- 29.91 in1012.9 mb 0.00 in0.0 mm 0.00 in0.0 mm 0.00 in0.0 mm
12:45 AM 61.2°F16.2°C 59.4°F15.2°C 94% Calm Calm 1.0 mph1.6 kmh 29.92 in1013.2 mb 0.00 in0.0 mm 0.00 in0.0 mm 0.00 in0.0 mm
12:50 AM 61.2°F16.2°C 59.4°F15.2°C 94% Calm Calm 1.0 mph1.6 kmh 29.91 in1012.9 mb 0.00 in0.0 mm 0.00 in0.0 mm 0.00 in0.0 mm
12:55 AM 61.0°F16.1°C 59.2°F15.1°C 94% Calm Calm -- 29.91 in1012.9 mb 0.00 in0.0 mm 0.00 in0.0 mm 0.00 in0.0 mm
01:00 AM 61.0°F16.1°C 59.2°F15.1°C 94% Calm Calm -- 29.91 in1012.9 mb 0.00 in0.0 mm 0.00 in0.0 mm 0.00 in0.0 mm
01:05 AM 60.8°F16.0°C 59.0°F15.0°C 94% Calm Calm 1.0 mph1.6 kmh 29.90 in1012.5 mb 0.00 in0.0 mm 0.00 in0.0 mm 0.00 in0.0 mm
01:10 AM 60.6°F15.9°C 58.8°F14.9°C 94% Calm Calm 1.0 mph1.6 kmh 29.90 in1012.5 mb 0.00 in0.0 mm 0.00 in0.0 mm 0.00 in0.0 mm
01:15 AM 60.6°F15.9°C 58.8°F14.9°C 94% Calm Calm 1.0 mph1.6 kmh 29.90 in1012.5 mb 0.00 in0.0 mm 0.00 in0.0 mm 0.00 in0.0 mm
01:20 AM 60.6°F15.9°C 58.8°F14.9°C 94% Calm Calm 1.0 mph1.6 kmh 29.90 in1012.5 mb 0.00 in0.0 mm 0.00 in0.0 mm 0.00 in0.0 mm
01:25 AM 60.6°F15.9°C 59.2°F15.1°C 95% Calm Calm 1.0 mph1.6 kmh 29.90 in1012.5 mb 0.00 in0.0 mm 0.00 in0.0 mm 0.00 in0.0 mm
01:30 AM 60.6°F15.9°C 59.2°F15.1°C 95% Calm Calm 1.0 mph1.6 kmh 29.90 in1012.5 mb 0.00 in0.0 mm 0.00 in0.0 mm 0.00 in0.0 mm
01:35 AM 60.6°F15.9°C 59.2°F15.1°C 95% Calm Calm -- 29.90 in1012.5 mb 0.00 in0.0 mm 0.00 in0.0 mm 0.00 in0.0 mm
01:40 AM 60.6°F15.9°C 59.2°F15.1°C 95% Calm Calm -- 29.90 in1012.5 mb 0.00 in0.0 mm 0.00 in0.0 mm 0.00 in0.0 mm
01:45 AM 60.6°F15.9°C 59.2°F15.1°C 95% Calm Calm -- 29.90 in1012.5 mb 0.00 in0.0 mm 0.00 in0.0 mm 0.00 in0.0 mm
01:50 AM 60.6°F15.9°C 59.2°F15.1°C 95% Calm Calm -- 29.90 in1012.5 mb 0.00 in0.0 mm 0.00 in0.0 mm 0.00 in0.0 mm
01:55 AM 60.6°F15.9°C 59.2°F15.1°C 95% Calm Calm -- 29.89 in1012.2 mb 0.00 in0.0 mm 0.00 in0.0 mm 0.00 in0.0 mm
02:00 AM 60.6°F15.9°C 59.2°F15.1°C 95% Calm Calm -- 29.89 in1012.2 mb 0.00 in0.0 mm 0.00 in0.0 mm 0.00 in0.0 mm
02:05 AM 60.4°F15.8°C 59.0°F15.0°C 95% Calm Calm -- 29.89 in1012.2 mb 0.00 in0.0 mm 0.00 in0.0 mm 0.00 in0.0 mm
02:10 AM 60.4°F15.8°C 59.0°F15.0°C 95% Calm Calm -- 29.89 in1012.2 mb 0.00 in0.0 mm 0.00 in0.0 mm 0.00 in0.0 mm
02:15 AM 60.4°F15.8°C 59.0°F15.0°C 95% Calm Calm -- 29.89 in1012.2 mb 0.00 in0.0 mm 0.00 in0.0 mm 0.00 in0.0 mm
02:20 AM 60.4°F15.8°C 59.0°F15.0°C 95% Calm Calm -- 29.89 in1012.2 mb 0.00 in0.0 mm 0.00 in0.0 mm 0.00 in0.0 mm
02:25 AM 60.3°F15.7°C 58.8°F14.9°C 95% Calm Calm -- 29.89 in1012.2 mb 0.00 in0.0 mm 0.00 in0.0 mm 0.00 in0.0 mm
02:30 AM 60.3°F15.7°C 58.8°F14.9°C 95% Calm Calm -- 29.89 in1012.2 mb 0.00 in0.0 mm 0.00 in0.0 mm 0.00 in0.0 mm
02:35 AM 60.3°F15.7°C 58.8°F14.9°C 95% Calm Calm -- 29.89 in1012.2 mb 0.00 in0.0 mm 0.00 in0.0 mm 0.00 in0.0 mm
02:40 AM 60.4°F15.8°C 59.0°F15.0°C 95% Calm Calm -- 29.89 in1012.2 mb 0.00 in0.0 mm 0.00 in0.0 mm 0.00 in0.0 mm
02:45 AM 60.3°F15.7°C 58.8°F14.9°C 95% Calm Calm -- 29.89 in1012.2 mb 0.00 in0.0 mm 0.00 in0.0 mm 0.00 in0.0 mm
02:50 AM 60.3°F15.7°C 58.8°F14.9°C 95% Calm Calm -- 29.89 in1012.2 mb 0.00 in0.0 mm 0.00 in0.0 mm 0.00 in0.0 mm
02:55 AM 60.3°F15.7°C 58.8°F14.9°C 95% Calm Calm -- 29.89 in1012.2 mb 0.00 in0.0 mm 0.00 in0.0 mm 0.00 in0.0 mm
03:00 AM 60.3°F15.7°C 58.8°F14.9°C 95% Calm Calm -- 29.89 in1012.2 mb 0.00 in0.0 mm 0.00 in0.0 mm 0.00 in0.0 mm
03:05 AM 60.1°F15.6°C 58.6°F14.8°C 95% Calm Calm -- 29.89 in1012.2 mb 0.00 in0.0 mm 0.00 in0.0 mm 0.00 in0.0 mm
03:10 AM 59.7°F15.4°C 58.3°F14.6°C 95% Calm Calm -- 29.89 in1012.2 mb 0.00 in0.0 mm 0.00 in0.0 mm 0.00 in0.0 mm
03:15 AM 59.5°F15.3°C 58.1°F14.5°C 95% Calm Calm -- 29.89 in1012.2 mb 0.00 in0.0 mm 0.00 in0.0 mm 0.00 in0.0 mm
03:20 AM 59.5°F15.3°C 58.1°F14.5°C 95% Calm Calm -- 29.89 in1012.2 mb 0.00 in0.0 mm 0.00 in0.0 mm 0.00 in0.0 mm
03:25 AM 59.5°F15.3°C 58.1°F14.5°C 95% Calm Calm -- 29.89 in1012.2 mb 0.00 in0.0 mm 0.00 in0.0 mm 0.00 in0.0 mm
03:30 AM 59.7°F15.4°C 58.3°F14.6°C 95% Calm Calm -- 29.89 in1012.2 mb 0.00 in0.0 mm 0.00 in0.0 mm 0.00 in0.0 mm
03:35 AM 59.7°F15.4°C 58.3°F14.6°C 95% Calm Calm -- 29.89 in1012.2 mb 0.00 in0.0 mm 0.00 in0.0 mm 0.00 in0.0 mm
03:40 AM 60.1°F15.6°C 58.6°F14.8°C 95% Calm Calm -- 29.89 in1012.2 mb 0.00 in0.0 mm 0.00 in0.0 mm 0.00 in0.0 mm
03:45 AM 60.3°F15.7°C 58.8°F14.9°C 95% Calm Calm -- 29.89 in1012.2 mb 0.00 in0.0 mm 0.00 in0.0 mm 0.00 in0.0 mm
03:50 AM 60.4°F15.8°C 59.0°F15.0°C 95% Calm Calm 1.0 mph1.6 kmh 29.89 in1012.2 mb 0.00 in0.0 mm 0.00 in0.0 mm 0.00 in0.0 mm
03:55 AM 60.4°F15.8°C 59.0°F15.0°C 95% Calm Calm 1.0 mph1.6 kmh 29.89 in1012.2 mb 0.00 in0.0 mm 0.00 in0.0 mm 0.00 in0.0 mm
04:00 AM 60.6°F15.9°C 59.5°F15.3°C 96% Calm Calm 1.0 mph1.6 kmh 29.89 in1012.2 mb 0.00 in0.0 mm 0.00 in0.0 mm 0.00 in0.0 mm
04:05 AM 60.6°F15.9°C 59.2°F15.1°C 95% Calm Calm -- 29.89 in1012.2 mb 0.00 in0.0 mm 0.00 in0.0 mm 0.00 in0.0 mm
04:10 AM 60.8°F16.0°C 59.7°F15.4°C 96% Calm Calm -- 29.89 in1012.2 mb 0.00 in0.0 mm 0.00 in0.0 mm 0.00 in0.0 mm
04:15 AM 60.8°F16.0°C 59.4°F15.2°C 95% Calm Calm -- 29.90 in1012.5 mb 0.00 in0.0 mm 0.00 in0.0 mm 0.00 in0.0 mm
04:20 AM 60.6°F15.9°C 59.2°F15.1°C 95% Calm Calm -- 29.90 in1012.5 mb 0.00 in0.0 mm 0.00 in0.0 mm 0.00 in0.0 mm
04:25 AM 60.8°F16.0°C 59.4°F15.2°C 95% Calm Calm -- 29.89 in1012.2 mb 0.00 in0.0 mm 0.00 in0.0 mm 0.00 in0.0 mm
04:30 AM 61.0°F16.1°C 59.5°F15.3°C 95% Calm Calm -- 29.90 in1012.5 mb 0.00 in0.0 mm 0.00 in0.0 mm 0.00 in0.0 mm
04:35 AM 60.6°F15.9°C 59.2°F15.1°C 95% Calm Calm -- 29.90 in1012.5 mb 0.00 in0.0 mm 0.00 in0.0 mm 0.00 in0.0 mm
04:40 AM 60.6°F15.9°C 59.2°F15.1°C 95% Calm Calm -- 29.90 in1012.5 mb 0.00 in0.0 mm 0.00 in0.0 mm 0.00 in0.0 mm
04:45 AM 61.0°F16.1°C 59.7°F15.4°C 96% Calm Calm -- 29.90 in1012.5 mb 0.00 in0.0 mm 0.00 in0.0 mm 0.00 in0.0 mm
04:50 AM 61.2°F16.2°C 60.1°F15.6°C 96% Calm Calm 1.0 mph1.6 kmh 29.90 in1012.5 mb 0.00 in0.0 mm 0.00 in0.0 mm 0.00 in0.0 mm
04:55 AM 61.3°F16.3°C 60.3°F15.7°C 96% Calm Calm 1.0 mph1.6 kmh 29.90 in1012.5 mb 0.00 in0.0 mm 0.00 in0.0 mm 0.00 in0.0 mm
05:00 AM 61.5°F16.4°C 60.4°F15.8°C 96% Calm Calm 1.0 mph1.6 kmh 29.90 in1012.5 mb 0.00 in0.0 mm 0.00 in0.0 mm 0.00 in0.0 mm
05:05 AM 61.7°F16.5°C 60.6°F15.9°C 96% Calm Calm -- 29.90 in1012.5 mb 0.00 in0.0 mm 0.00 in0.0 mm 0.00 in0.0 mm
05:10 AM 61.9°F16.6°C 60.6°F15.9°C 96% Calm Calm -- 29.90 in1012.5 mb 0.00 in0.0 mm 0.00 in0.0 mm 0.00 in0.0 mm
05:15 AM 61.9°F16.6°C 60.8°F16.0°C 96% Calm Calm -- 29.90 in1012.5 mb 0.00 in0.0 mm 0.00 in0.0 mm 0.00 in0.0 mm
05:20 AM 62.1°F16.7°C 60.8°F16.0°C 96% Calm Calm -- 29.90 in1012.5 mb 0.00 in0.0 mm 0.00 in0.0 mm 0.00 in0.0 mm
05:25 AM 62.1°F16.7°C 61.0°F16.1°C 96% Calm Calm -- 29.90 in1012.5 mb 0.00 in0.0 mm 0.00 in0.0 mm 0.00 in0.0 mm
05:30 AM 62.1°F16.7°C 61.0°F16.1°C 96% Calm Calm -- 29.90 in1012.5 mb 0.00 in0.0 mm 0.00 in0.0 mm 0.00 in0.0 mm
05:35 AM 62.1°F16.7°C 61.0°F16.1°C 96% Calm Calm 2.0 mph3.2 kmh 29.90 in1012.5 mb 0.00 in0.0 mm 0.00 in0.0 mm 0.00 in0.0 mm
05:40 AM 62.2°F16.8°C 61.0°F16.1°C 96% Calm Calm 2.0 mph3.2 kmh 29.90 in1012.5 mb 0.00 in0.0 mm 0.00 in0.0 mm 0.00 in0.0 mm
05:45 AM 62.2°F16.8°C 61.2°F16.2°C 96% Calm Calm 2.0 mph3.2 kmh 29.90 in1012.5 mb 0.00 in0.0 mm 0.00 in0.0 mm 0.00 in0.0 mm
05:50 AM 62.4°F16.9°C 61.2°F16.2°C 96% Calm Calm -- 29.90 in1012.5 mb 0.00 in0.0 mm 0.00 in0.0 mm 0.00 in0.0 mm
05:55 AM 62.4°F16.9°C 61.3°F16.3°C 96% Calm Calm 2.0 mph3.2 kmh 29.90 in1012.5 mb 0.00 in0.0 mm 0.00 in0.0 mm 0.00 in0.0 mm
06:00 AM 62.6°F17.0°C 61.5°F16.4°C 96% Calm Calm 2.0 mph3.2 kmh 29.90 in1012.5 mb 0.00 in0.0 mm 0.00 in0.0 mm 0.00 in0.0 mm
06:05 AM 62.8°F17.1°C 61.7°F16.5°C 96% Calm Calm 2.0 mph3.2 kmh 29.90 in1012.5 mb 0.00 in0.0 mm 0.00 in0.0 mm 0.00 in0.0 mm
06:10 AM 63.0°F17.2°C 61.9°F16.6°C 96% Calm Calm 3.0 mph4.8 kmh 29.90 in1012.5 mb 0.00 in0.0 mm 0.00 in0.0 mm 0.00 in0.0 mm
06:15 AM 62.8°F17.1°C 61.7°F16.5°C 96% 1.0 mph E1.6 kmh E 3.0 mph4.8 kmh 29.90 in1012.5 mb 0.00 in0.0 mm 0.00 in0.0 mm 0.00 in0.0 mm
06:20 AM 63.0°F17.2°C 61.9°F16.6°C 96% 1.0 mph E1.6 kmh E 3.0 mph4.8 kmh 29.90 in1012.5 mb 0.00 in0.0 mm 0.00 in0.0 mm 0.00 in0.0 mm
06:25 AM 63.5°F17.5°C 62.4°F16.9°C 96% Calm Calm 3.0 mph4.8 kmh 29.90 in1012.5 mb 0.00 in0.0 mm 0.00 in0.0 mm 0.00 in0.0 mm
06:30 AM 63.7°F17.6°C 62.4°F16.9°C 96% Calm Calm 1.0 mph1.6 kmh 29.90 in1012.5 mb 0.00 in0.0 mm 0.00 in0.0 mm 0.00 in0.0 mm
06:35 AM 63.9°F17.7°C 62.6°F17.0°C 96% Calm Calm 1.0 mph1.6 kmh 29.91 in1012.9 mb 0.00 in0.0 mm 0.00 in0.0 mm 0.00 in0.0 mm
06:40 AM 63.9°F17.7°C 62.8°F17.1°C 96% Calm Calm -- 29.91 in1012.9 mb 0.00 in0.0 mm 0.00 in0.0 mm 0.00 in0.0 mm
06:45 AM 63.9°F17.7°C 62.4°F16.9°C 95% Calm Calm -- 29.91 in1012.9 mb 0.00 in0.0 mm 0.00 in0.0 mm 0.00 in0.0 mm
06:50 AM 63.9°F17.7°C 62.4°F16.9°C 95% Calm Calm -- 29.91 in1012.9 mb 0.00 in0.0 mm 0.00 in0.0 mm 0.00 in0.0 mm
06:55 AM 64.0°F17.8°C 62.6°F17.0°C 95% Calm Calm -- 29.91 in1012.9 mb 0.00 in0.0 mm 0.00 in0.0 mm 0.00 in0.0 mm
07:00 AM 64.0°F17.8°C 62.6°F17.0°C 95% Calm Calm -- 29.91 in1012.9 mb 0.00 in0.0 mm 0.00 in0.0 mm 0.00 in0.0 mm
07:05 AM 64.0°F17.8°C 62.6°F17.0°C 95% Calm Calm -- 29.91 in1012.9 mb 0.00 in0.0 mm 0.00 in0.0 mm 0.00 in0.0 mm
07:10 AM 64.0°F17.8°C 62.2°F16.8°C 94% Calm Calm -- 29.91 in1012.9 mb 0.00 in0.0 mm 0.00 in0.0 mm 0.00 in0.0 mm
07:15 AM 64.0°F17.8°C 62.4°F16.9°C 94% Calm Calm -- 29.90 in1012.5 mb 0.00 in0.0 mm 0.00 in0.0 mm 0.00 in0.0 mm
07:20 AM 64.2°F17.9°C 62.6°F17.0°C 94% Calm Calm -- 29.91 in1012.9 mb 0.00 in0.0 mm 0.00 in0.0 mm 0.00 in0.0 mm
07:25 AM 64.8°F18.2°C 63.0°F17.2°C 94% Calm Calm -- 29.90 in1012.5 mb 0.00 in0.0 mm 0.00 in0.0 mm 0.00 in0.0 mm
07:30 AM 64.8°F18.2°C 63.0°F17.2°C 94% Calm Calm -- 29.90 in1012.5 mb 0.00 in0.0 mm 0.00 in0.0 mm 0.00 in0.0 mm
07:35 AM 64.9°F18.3°C 62.8°F17.1°C 93% Calm Calm -- 29.91 in1012.9 mb 0.00 in0.0 mm 0.00 in0.0 mm 0.00 in0.0 mm
07:40 AM 65.1°F18.4°C 63.0°F17.2°C 93% Calm Calm -- 29.91 in1012.9 mb 0.00 in0.0 mm 0.00 in0.0 mm 0.00 in0.0 mm
07:45 AM 65.1°F18.4°C 62.8°F17.1°C 92% Calm Calm -- 29.91 in1012.9 mb 0.00 in0.0 mm 0.00 in0.0 mm 0.00 in0.0 mm
07:50 AM 65.1°F18.4°C 62.8°F17.1°C 92% Calm Calm 2.0 mph3.2 kmh 29.91 in1012.9 mb 0.00 in0.0 mm 0.00 in0.0 mm 0.00 in0.0 mm
07:55 AM 65.5°F18.6°C 63.0°F17.2°C 92% Calm Calm 3.0 mph4.8 kmh 29.91 in1012.9 mb 0.00 in0.0 mm 0.00 in0.0 mm 0.00 in0.0 mm
08:00 AM 65.7°F18.7°C 63.0°F17.2°C 91% 1.0 mph SW1.6 kmh SW 3.0 mph4.8 kmh 29.91 in1012.9 mb 0.00 in0.0 mm 0.00 in0.0 mm 0.00 in0.0 mm
08:05 AM 66.0°F18.9°C 63.3°F17.4°C 91% 1.0 mph SW1.6 kmh SW 2.0 mph3.2 kmh 29.91 in1012.9 mb 0.00 in0.0 mm 0.00 in0.0 mm 0.00 in0.0 mm
08:10 AM 66.4°F19.1°C 63.3°F17.4°C 90% Calm Calm 2.0 mph3.2 kmh 29.91 in1012.9 mb 0.00 in0.0 mm 0.00 in0.0 mm 0.00 in0.0 mm
08:15 AM 66.4°F19.1°C 63.1°F17.3°C 89% 1.0 mph SW1.6 kmh SW 4.0 mph6.4 kmh 29.91 in1012.9 mb 0.00 in0.0 mm 0.00 in0.0 mm 0.00 in0.0 mm
08:20 AM 66.0°F18.9°C 62.8°F17.1°C 89% 1.0 mph SW1.6 kmh SW 4.0 mph6.4 kmh 29.91 in1012.9 mb 0.00 in0.0 mm 0.00 in0.0 mm 0.00 in0.0 mm
08:25 AM 66.0°F18.9°C 62.8°F17.1°C 89% 2.0 mph SW3.2 kmh SW 3.0 mph4.8 kmh 29.91 in1012.9 mb 0.00 in0.0 mm 0.00 in0.0 mm 0.00 in0.0 mm
08:30 AM 66.2°F19.0°C 62.6°F17.0°C 88% 2.0 mph SW3.2 kmh SW 3.0 mph4.8 kmh 29.91 in1012.9 mb 0.00 in0.0 mm 0.00 in0.0 mm 0.00 in0.0 mm
08:35 AM 66.4°F19.1°C 62.8°F17.1°C 88% 2.0 mph SW3.2 kmh SW 5.0 mph8.0 kmh 29.91 in1012.9 mb 0.00 in0.0 mm 0.00 in0.0 mm 0.00 in0.0 mm
08:40 AM 66.6°F19.2°C 63.0°F17.2°C 88% 2.0 mph SW3.2 kmh SW 5.0 mph8.0 kmh 29.91 in1012.9 mb 0.00 in0.0 mm 0.00 in0.0 mm 0.00 in0.0 mm
08:45 AM 66.7°F19.3°C 63.1°F17.3°C 88% 1.0 mph SW1.6 kmh SW 4.0 mph6.4 kmh 29.91 in1012.9 mb 0.00 in0.0 mm 0.00 in0.0 mm 0.00 in0.0 mm
08:50 AM 66.7°F19.3°C 63.1°F17.3°C 88% 1.0 mph WSW1.6 kmh WSW 4.0 mph6.4 kmh 29.91 in1012.9 mb 0.00 in0.0 mm 0.00 in0.0 mm 0.00 in0.0 mm
08:55 AM 66.9°F19.4°C 62.6°F17.0°C 86% 1.0 mph WNW1.6 kmh WNW 4.0 mph6.4 kmh 29.91 in1012.9 mb 0.00 in0.0 mm 0.00 in0.0 mm 0.00 in0.0 mm
09:00 AM 67.3°F19.6°C 62.6°F17.0°C 85% 1.0 mph NW1.6 kmh NW 4.0 mph6.4 kmh 29.91 in1012.9 mb 0.00 in0.0 mm 0.00 in0.0 mm 0.00 in0.0 mm
09:05 AM 67.5°F19.7°C 62.8°F17.1°C 85% 1.0 mph WNW1.6 kmh WNW 4.0 mph6.4 kmh 29.91 in1012.9 mb 0.00 in0.0 mm 0.00 in0.0 mm 0.00 in0.0 mm
09:10 AM 67.5°F19.7°C 62.8°F17.1°C 85% 1.0 mph WSW1.6 kmh WSW 3.0 mph4.8 kmh 29.91 in1012.9 mb 0.00 in0.0 mm 0.00 in0.0 mm 0.00 in0.0 mm
09:15 AM 67.5°F19.7°C 62.4°F16.9°C 84% 1.0 mph WSW1.6 kmh WSW 5.0 mph8.0 kmh 29.91 in1012.9 mb 0.00 in0.0 mm 0.00 in0.0 mm 0.00 in0.0 mm
09:20 AM 67.6°F19.8°C 62.6°F17.0°C 84% 1.0 mph WSW1.6 kmh WSW 5.0 mph8.0 kmh 29.91 in1012.9 mb 0.00 in0.0 mm 0.00 in0.0 mm 0.00 in0.0 mm
09:25 AM 68.2°F20.1°C 62.8°F17.1°C 83% 1.0 mph NW1.6 kmh NW 3.0 mph4.8 kmh 29.91 in1012.9 mb 0.00 in0.0 mm 0.00 in0.0 mm 0.00 in0.0 mm
09:30 AM 68.4°F20.2°C 62.6°F17.0°C 82% Calm Calm 3.0 mph4.8 kmh 29.91 in1012.9 mb 0.00 in0.0 mm 0.00 in0.0 mm 0.00 in0.0 mm
09:35 AM 68.5°F20.3°C 62.6°F17.0°C 81% Calm Calm 3.0 mph4.8 kmh 29.91 in1012.9 mb 0.00 in0.0 mm 0.00 in0.0 mm 0.00 in0.0 mm
09:40 AM 68.7°F20.4°C 62.8°F17.1°C 81% Calm Calm 3.0 mph4.8 kmh 29.91 in1012.9 mb 0.00 in0.0 mm 0.00 in0.0 mm 0.00 in0.0 mm
09:45 AM 68.7°F20.4°C 62.8°F17.1°C 81% Calm Calm 2.0 mph3.2 kmh 29.91 in1012.9 mb 0.00 in0.0 mm 0.00 in0.0 mm 0.00 in0.0 mm
09:50 AM 69.1°F20.6°C 63.0°F17.2°C 81% Calm Calm 2.0 mph3.2 kmh 29.91 in1012.9 mb 0.00 in0.0 mm 0.00 in0.0 mm 0.00 in0.0 mm
09:55 AM 69.8°F21.0°C 63.3°F17.4°C 80% Calm Calm 3.0 mph4.8 kmh 29.91 in1012.9 mb 0.00 in0.0 mm 0.00 in0.0 mm 0.00 in0.0 mm
10:00 AM 70.0°F21.1°C 63.5°F17.5°C 80% Calm Calm 3.0 mph4.8 kmh 29.91 in1012.9 mb 0.00 in0.0 mm 0.00 in0.0 mm 0.00 in0.0 mm
10:05 AM 70.2°F21.2°C 63.7°F17.6°C 80% Calm Calm 2.0 mph3.2 kmh 29.91 in1012.9 mb 0.00 in0.0 mm 0.00 in0.0 mm 0.00 in0.0 mm
10:10 AM 70.2°F21.2°C 63.3°F17.4°C 79% Calm Calm 3.0 mph4.8 kmh 29.91 in1012.9 mb 0.00 in0.0 mm 0.00 in0.0 mm 0.00 in0.0 mm
10:15 AM 69.6°F20.9°C 63.1°F17.3°C 80% 1.0 mph WSW1.6 kmh WSW 3.0 mph4.8 kmh 29.91 in1012.9 mb 0.00 in0.0 mm 0.00 in0.0 mm 0.00 in0.0 mm
10:20 AM 70.0°F21.1°C 63.1°F17.3°C 79% 1.0 mph SW1.6 kmh SW 4.0 mph6.4 kmh 29.91 in1012.9 mb 0.00 in0.0 mm 0.00 in0.0 mm 0.00 in0.0 mm
10:25 AM 69.8°F21.0°C 63.0°F17.2°C 79% 1.0 mph SW1.6 kmh SW 4.0 mph6.4 kmh 29.91 in1012.9 mb 0.00 in0.0 mm 0.00 in0.0 mm 0.00 in0.0 mm
10:30 AM 70.0°F21.1°C 62.8°F17.1°C 78% 1.0 mph SW1.6 kmh SW 4.0 mph6.4 kmh 29.91 in1012.9 mb 0.00 in0.0 mm 0.00 in0.0 mm 0.00 in0.0 mm
10:35 AM 69.6°F20.9°C 62.6°F17.0°C 78% 1.0 mph SW1.6 kmh SW 4.0 mph6.4 kmh 29.91 in1012.9 mb 0.00 in0.0 mm 0.00 in0.0 mm 0.00 in0.0 mm
10:40 AM 69.4°F20.8°C 62.6°F17.0°C 79% 1.0 mph SW1.6 kmh SW 5.0 mph8.0 kmh 29.91 in1012.9 mb 0.00 in0.0 mm 0.00 in0.0 mm 0.00 in0.0 mm
10:45 AM 69.3°F20.7°C 62.8°F17.1°C 80% 2.0 mph SW3.2 kmh SW 5.0 mph8.0 kmh 29.91 in1012.9 mb 0.00 in0.0 mm 0.00 in0.0 mm 0.00 in0.0 mm
10:50 AM 69.4°F20.8°C 63.0°F17.2°C 80% 2.0 mph SW3.2 kmh SW 5.0 mph8.0 kmh 29.92 in1013.2 mb 0.00 in0.0 mm 0.00 in0.0 mm 0.00 in0.0 mm
10:55 AM 69.6°F20.9°C 62.8°F17.1°C 79% 1.0 mph SW1.6 kmh SW 7.0 mph11.3 kmh 29.91 in1012.9 mb 0.00 in0.0 mm 0.00 in0.0 mm 0.00 in0.0 mm
11:00 AM 69.4°F20.8°C 63.1°F17.3°C 80% 2.0 mph SW3.2 kmh SW 7.0 mph11.3 kmh 29.91 in1012.9 mb 0.00 in0.0 mm 0.00 in0.0 mm 0.00 in0.0 mm
11:05 AM 69.1°F20.6°C 61.9°F16.6°C 78% 3.0 mph SW4.8 kmh SW 7.0 mph11.3 kmh 29.92 in1013.2 mb 0.00 in0.0 mm 0.00 in0.0 mm 0.00 in0.0 mm
11:10 AM 69.1°F20.6°C 62.2°F16.8°C 79% 4.0 mph SW6.4 kmh SW 7.0 mph11.3 kmh 29.91 in1012.9 mb 0.00 in0.0 mm 0.00 in0.0 mm 0.00 in0.0 mm
11:15 AM 69.1°F20.6°C 62.6°F17.0°C 80% 3.0 mph SW4.8 kmh SW 7.0 mph11.3 kmh 29.91 in1012.9 mb 0.00 in0.0 mm 0.00 in0.0 mm 0.00 in0.0 mm
11:20 AM 68.7°F20.4°C 62.4°F16.9°C 80% 2.0 mph SW3.2 kmh SW 5.0 mph8.0 kmh 29.91 in1012.9 mb 0.00 in0.0 mm 0.00 in0.0 mm 0.00 in0.0 mm
11:25 AM 68.5°F20.3°C 62.6°F17.0°C 81% 1.0 mph SW1.6 kmh SW 5.0 mph8.0 kmh 29.91 in1012.9 mb 0.00 in0.0 mm 0.00 in0.0 mm 0.00 in0.0 mm
11:30 AM 68.2°F20.1°C 62.4°F16.9°C 82% 1.0 mph SW1.6 kmh SW 3.0 mph4.8 kmh 29.92 in1013.2 mb 0.00 in0.0 mm 0.00 in0.0 mm 0.00 in0.0 mm
11:35 AM 67.6°F19.8°C 62.6°F17.0°C 84% 1.0 mph SW1.6 kmh SW 3.0 mph4.8 kmh 29.92 in1013.2 mb 0.00 in0.0 mm 0.00 in0.0 mm 0.00 in0.0 mm
11:40 AM 67.3°F19.6°C 62.6°F17.0°C 85% 1.0 mph SW1.6 kmh SW 3.0 mph4.8 kmh 29.92 in1013.2 mb 0.01 in0.3 mm 0.12 in3.0 mm 0.01 in0.3 mm
11:45 AM 66.9°F19.4°C 62.6°F17.0°C 86% 1.0 mph SW1.6 kmh SW 3.0 mph4.8 kmh 29.92 in1013.2 mb 0.02 in0.5 mm 0.12 in3.0 mm 0.02 in0.5 mm
11:50 AM 66.6°F19.2°C 62.6°F17.0°C 87% 1.0 mph SW1.6 kmh SW 5.0 mph8.0 kmh 29.92 in1013.2 mb 0.02 in0.5 mm 0.00 in0.0 mm 0.02 in0.5 mm
11:55 AM 66.4°F19.1°C 62.6°F17.0°C 88% 2.0 mph SW3.2 kmh SW 5.0 mph8.0 kmh 29.92 in1013.2 mb 0.02 in0.5 mm 0.00 in0.0 mm 0.02 in0.5 mm
12:00 PM 66.0°F18.9°C 62.8°F17.1°C 89% 1.0 mph SW1.6 kmh SW 3.0 mph4.8 kmh 29.92 in1013.2 mb 0.02 in0.5 mm 0.00 in0.0 mm 0.02 in0.5 mm
12:05 PM 65.8°F18.8°C 62.6°F17.0°C 89% 1.0 mph SW1.6 kmh SW 3.0 mph4.8 kmh 29.92 in1013.2 mb 0.02 in0.5 mm 0.00 in0.0 mm 0.02 in0.5 mm
12:10 PM 65.8°F18.8°C 62.8°F17.1°C 90% 1.0 mph WSW1.6 kmh WSW 3.0 mph4.8 kmh 29.91 in1012.9 mb 0.02 in0.5 mm 0.00 in0.0 mm 0.02 in0.5 mm
12:15 PM 65.8°F18.8°C 62.8°F17.1°C 90% Calm Calm 3.0 mph4.8 kmh 29.91 in1012.9 mb 0.02 in0.5 mm 0.00 in0.0 mm 0.02 in0.5 mm
12:20 PM 65.8°F18.8°C 63.1°F17.3°C 91% Calm Calm 3.0 mph4.8 kmh 29.91 in1012.9 mb 0.02 in0.5 mm 0.00 in0.0 mm 0.02 in0.5 mm
12:25 PM 65.8°F18.8°C 63.1°F17.3°C 91% 1.0 mph WSW1.6 kmh WSW 4.0 mph6.4 kmh 29.91 in1012.9 mb 0.02 in0.5 mm 0.00 in0.0 mm 0.02 in0.5 mm
12:30 PM 65.8°F18.8°C 63.1°F17.3°C 91% 1.0 mph SW1.6 kmh SW 4.0 mph6.4 kmh 29.91 in1012.9 mb 0.02 in0.5 mm 0.00 in0.0 mm 0.02 in0.5 mm
12:35 PM 65.8°F18.8°C 63.1°F17.3°C 91% Calm Calm 4.0 mph6.4 kmh 29.91 in1012.9 mb 0.02 in0.5 mm 0.00 in0.0 mm 0.02 in0.5 mm
12:40 PM 65.7°F18.7°C 63.0°F17.2°C 91% 1.0 mph SW1.6 kmh SW 4.0 mph6.4 kmh 29.91 in1012.9 mb 0.02 in0.5 mm 0.00 in0.0 mm 0.02 in0.5 mm
12:45 PM 65.7°F18.7°C 63.0°F17.2°C 91% 2.0 mph SW3.2 kmh SW 4.0 mph6.4 kmh 29.91 in1012.9 mb 0.01 in0.3 mm 0.00 in0.0 mm 0.02 in0.5 mm
12:50 PM 65.7°F18.7°C 63.1°F17.3°C 92% 2.0 mph SW3.2 kmh SW 5.0 mph8.0 kmh 29.92 in1013.2 mb 0.02 in0.5 mm 0.12 in3.0 mm 0.03 in0.8 mm
12:55 PM 65.7°F18.7°C 63.1°F17.3°C 92% 2.0 mph SW3.2 kmh SW 6.0 mph9.7 kmh 29.92 in1013.2 mb 0.02 in0.5 mm 0.00 in0.0 mm 0.03 in0.8 mm
01:00 PM 65.1°F18.4°C 62.4°F16.9°C 91% 3.0 mph SW4.8 kmh SW 6.0 mph9.7 kmh 29.92 in1013.2 mb 0.02 in0.5 mm 0.00 in0.0 mm 0.03 in0.8 mm
01:05 PM 64.8°F18.2°C 61.7°F16.5°C 90% 3.0 mph SW4.8 kmh SW 6.0 mph9.7 kmh 29.92 in1013.2 mb 0.02 in0.5 mm 0.00 in0.0 mm 0.04 in1.0 mm
01:10 PM 64.2°F17.9°C 61.3°F16.3°C 90% 2.0 mph SW3.2 kmh SW 6.0 mph9.7 kmh 29.92 in1013.2 mb 0.02 in0.5 mm 0.00 in0.0 mm 0.04 in1.0 mm
01:15 PM 64.2°F17.9°C 60.8°F16.0°C 89% 3.0 mph SW4.8 kmh SW 5.0 mph8.0 kmh 29.92 in1013.2 mb 0.02 in0.5 mm 0.00 in0.0 mm 0.04 in1.0 mm
01:20 PM 64.0°F17.8°C 60.8°F16.0°C 89% 3.0 mph SW4.8 kmh SW 5.0 mph8.0 kmh 29.92 in1013.2 mb 0.02 in0.5 mm 0.00 in0.0 mm 0.04 in1.0 mm
01:25 PM 64.2°F17.9°C 61.0°F16.1°C 89% 1.0 mph SW1.6 kmh SW 4.0 mph6.4 kmh 29.92 in1013.2 mb 0.02 in0.5 mm 0.00 in0.0 mm 0.04 in1.0 mm
01:30 PM 64.8°F18.2°C 61.7°F16.5°C 90% Calm Calm 2.0 mph3.2 kmh 29.91 in1012.9 mb 0.02 in0.5 mm 0.00 in0.0 mm 0.04 in1.0 mm
01:35 PM 65.1°F18.4°C 62.1°F16.7°C 90% Calm Calm 2.0 mph3.2 kmh 29.91 in1012.9 mb 0.02 in0.5 mm 0.00 in0.0 mm 0.04 in1.0 mm
01:40 PM 65.3°F18.5°C 62.2°F16.8°C 90% Calm Calm 2.0 mph3.2 kmh 29.91 in1012.9 mb 0.02 in0.5 mm 0.00 in0.0 mm 0.04 in1.0 mm
01:45 PM 65.1°F18.4°C 61.9°F16.6°C 89% Calm Calm 4.0 mph6.4 kmh 29.91 in1012.9 mb 0.02 in0.5 mm 0.00 in0.0 mm 0.04 in1.0 mm
01:50 PM 65.1°F18.4°C 61.9°F16.6°C 89% Calm Calm 4.0 mph6.4 kmh 29.91 in1012.9 mb 0.01 in0.3 mm 0.00 in0.0 mm 0.04 in1.0 mm
01:55 PM 64.9°F18.3°C 61.5°F16.4°C 89% Calm Calm 3.0 mph4.8 kmh 29.92 in1013.2 mb 0.01 in0.3 mm 0.00 in0.0 mm 0.04 in1.0 mm
02:00 PM 64.8°F18.2°C 61.7°F16.5°C 90% 1.0 mph SW1.6 kmh SW 4.0 mph6.4 kmh 29.91 in1012.9 mb 0.01 in0.3 mm 0.00 in0.0 mm 0.04 in1.0 mm
02:05 PM 64.6°F18.1°C 61.5°F16.4°C 90% 1.0 mph SW1.6 kmh SW 4.0 mph6.4 kmh 29.92 in1013.2 mb 0.00 in0.0 mm 0.00 in0.0 mm 0.04 in1.0 mm
02:10 PM 64.6°F18.1°C 61.5°F16.4°C 90% 1.0 mph SW1.6 kmh SW 4.0 mph6.4 kmh 29.91 in1012.9 mb 0.01 in0.3 mm 0.12 in3.0 mm 0.05 in1.3 mm
02:15 PM 64.6°F18.1°C 61.9°F16.6°C 91% Calm Calm 3.0 mph4.8 kmh 29.91 in1012.9 mb 0.02 in0.5 mm 0.12 in3.0 mm 0.06 in1.5 mm
02:20 PM 64.8°F18.2°C 62.1°F16.7°C 91% Calm Calm 2.0 mph3.2 kmh 29.91 in1012.9 mb 0.02 in0.5 mm 0.00 in0.0 mm 0.06 in1.5 mm
02:25 PM 64.8°F18.2°C 62.4°F16.9°C 92% Calm Calm 2.0 mph3.2 kmh 29.91 in1012.9 mb 0.02 in0.5 mm 0.00 in0.0 mm 0.06 in1.5 mm
02:30 PM 64.9°F18.3°C 62.6°F17.0°C 92% Calm Calm 1.0 mph1.6 kmh 29.91 in1012.9 mb 0.02 in0.5 mm 0.00 in0.0 mm 0.06 in1.5 mm
02:35 PM 64.9°F18.3°C 62.6°F17.0°C 92% Calm Calm 1.0 mph1.6 kmh 29.91 in1012.9 mb 0.02 in0.5 mm 0.00 in0.0 mm 0.06 in1.5 mm
02:40 PM 65.1°F18.4°C 62.8°F17.1°C 92% Calm Calm 1.0 mph1.6 kmh 29.91 in1012.9 mb 0.02 in0.5 mm 0.00 in0.0 mm 0.06 in1.5 mm
02:45 PM 65.1°F18.4°C 62.8°F17.1°C 92% Calm Calm 1.0 mph1.6 kmh 29.91 in1012.9 mb 0.02 in0.5 mm 0.00 in0.0 mm 0.06 in1.5 mm
02:50 PM 65.1°F18.4°C 62.8°F17.1°C 92% Calm Calm 1.0 mph1.6 kmh 29.91 in1012.9 mb 0.02 in0.5 mm 0.00 in0.0 mm 0.06 in1.5 mm
02:55 PM 64.9°F18.3°C 62.6°F17.0°C 92% Calm Calm 2.0 mph3.2 kmh 29.91 in1012.9 mb 0.02 in0.5 mm 0.00 in0.0 mm 0.06 in1.5 mm
03:00 PM 64.9°F18.3°C 62.6°F17.0°C 92% Calm Calm 2.0 mph3.2 kmh 29.90 in1012.5 mb 0.02 in0.5 mm 0.00 in0.0 mm 0.06 in1.5 mm
03:05 PM 64.9°F18.3°C 62.6°F17.0°C 92% Calm Calm 1.0 mph1.6 kmh 29.91 in1012.9 mb 0.02 in0.5 mm 0.00 in0.0 mm 0.06 in1.5 mm
03:10 PM 64.9°F18.3°C 62.2°F16.8°C 91% Calm Calm 2.0 mph3.2 kmh 29.91 in1012.9 mb 0.02 in0.5 mm 0.00 in0.0 mm 0.06 in1.5 mm
03:15 PM 64.8°F18.2°C 62.1°F16.7°C 91% 1.0 mph SW1.6 kmh SW 2.0 mph3.2 kmh 29.91 in1012.9 mb 0.01 in0.3 mm 0.00 in0.0 mm 0.06 in1.5 mm
03:20 PM 64.8°F18.2°C 62.1°F16.7°C 91% 1.0 mph SW1.6 kmh SW 2.0 mph3.2 kmh 29.91 in1012.9 mb 0.01 in0.3 mm 0.00 in0.0 mm 0.06 in1.5 mm
03:25 PM 65.1°F18.4°C 62.4°F16.9°C 91% Calm Calm 1.0 mph1.6 kmh 29.91 in1012.9 mb 0.01 in0.3 mm 0.00 in0.0 mm 0.06 in1.5 mm
03:30 PM 65.7°F18.7°C 63.0°F17.2°C 91% Calm Calm 1.0 mph1.6 kmh 29.91 in1012.9 mb 0.01 in0.3 mm 0.00 in0.0 mm 0.06 in1.5 mm
03:35 PM 65.1°F18.4°C 61.9°F16.6°C 89% Calm Calm 1.0 mph1.6 kmh 29.91 in1012.9 mb 0.00 in0.0 mm 0.00 in0.0 mm 0.06 in1.5 mm
03:40 PM 65.3°F18.5°C 62.1°F16.7°C 89% Calm Calm 1.0 mph1.6 kmh 29.91 in1012.9 mb 0.00 in0.0 mm 0.00 in0.0 mm 0.06 in1.5 mm
03:45 PM 65.7°F18.7°C 62.6°F17.0°C 90% Calm Calm -- 29.91 in1012.9 mb 0.00 in0.0 mm 0.00 in0.0 mm 0.06 in1.5 mm
03:50 PM 65.7°F18.7°C 62.4°F16.9°C 89% Calm Calm -- 29.91 in1012.9 mb 0.00 in0.0 mm 0.00 in0.0 mm 0.06 in1.5 mm
03:55 PM 65.7°F18.7°C 62.6°F17.0°C 90% Calm Calm -- 29.91 in1012.9 mb 0.00 in0.0 mm 0.00 in0.0 mm 0.06 in1.5 mm
04:00 PM 65.5°F18.6°C 62.4°F16.9°C 90% Calm Calm 1.0 mph1.6 kmh 29.91 in1012.9 mb 0.00 in0.0 mm 0.00 in0.0 mm 0.06 in1.5 mm
04:05 PM 65.5°F18.6°C 62.8°F17.1°C 91% Calm Calm 1.0 mph1.6 kmh 29.91 in1012.9 mb 0.00 in0.0 mm 0.00 in0.0 mm 0.06 in1.5 mm
04:10 PM 64.9°F18.3°C 62.2°F16.8°C 91% Calm Calm 1.0 mph1.6 kmh 29.91 in1012.9 mb 0.00 in0.0 mm 0.00 in0.0 mm 0.06 in1.5 mm
04:15 PM 64.8°F18.2°C 62.1°F16.7°C 91% Calm Calm 2.0 mph3.2 kmh 29.91 in1012.9 mb 0.00 in0.0 mm 0.00 in0.0 mm 0.06 in1.5 mm
04:20 PM 64.6°F18.1°C 61.9°F16.6°C 91% Calm Calm 2.0 mph3.2 kmh 29.91 in1012.9 mb 0.00 in0.0 mm 0.00 in0.0 mm 0.06 in1.5 mm
04:25 PM 64.6°F18.1°C 61.9°F16.6°C 91% Calm Calm 1.0 mph1.6 kmh 29.91 in1012.9 mb 0.01 in0.3 mm 0.12 in3.0 mm 0.07 in1.8 mm
04:30 PM 64.6°F18.1°C 61.9°F16.6°C 91% Calm Calm 1.0 mph1.6 kmh 29.91 in1012.9 mb 0.01 in0.3 mm 0.00 in0.0 mm 0.07 in1.8 mm
04:35 PM 64.6°F18.1°C 61.9°F16.6°C 91% Calm Calm 1.0 mph1.6 kmh 29.91 in1012.9 mb 0.01 in0.3 mm 0.00 in0.0 mm 0.07 in1.8 mm
04:40 PM 64.6°F18.1°C 62.1°F16.7°C 92% Calm Calm 1.0 mph1.6 kmh 29.91 in1012.9 mb 0.01 in0.3 mm 0.00 in0.0 mm 0.07 in1.8 mm
04:45 PM 64.6°F18.1°C 62.2°F16.8°C 92% Calm Calm -- 29.91 in1012.9 mb 0.02 in0.5 mm 0.12 in3.0 mm 0.08 in2.0 mm
04:50 PM 64.6°F18.1°C 62.1°F16.7°C 92% Calm Calm 1.0 mph1.6 kmh 29.91 in1012.9 mb 0.02 in0.5 mm 0.00 in0.0 mm 0.09 in2.3 mm
04:55 PM 64.2°F17.9°C 61.9°F16.6°C 92% Calm Calm 1.0 mph1.6 kmh 29.90 in1012.5 mb 0.02 in0.5 mm 0.00 in0.0 mm 0.09 in2.3 mm
05:00 PM 64.2°F17.9°C 61.9°F16.6°C 92% Calm Calm 1.0 mph1.6 kmh 29.90 in1012.5 mb 0.02 in0.5 mm 0.00 in0.0 mm 0.09 in2.3 mm
05:05 PM 64.0°F17.8°C 61.7°F16.5°C 92% Calm Calm 1.0 mph1.6 kmh 29.90 in1012.5 mb 0.03 in0.8 mm 0.12 in3.0 mm 0.09 in2.3 mm
05:10 PM 64.0°F17.8°C 61.7°F16.5°C 92% Calm Calm 1.0 mph1.6 kmh 29.90 in1012.5 mb 0.03 in0.8 mm 0.00 in0.0 mm 0.09 in2.3 mm
05:15 PM 64.0°F17.8°C 61.7°F16.5°C 92% Calm Calm -- 29.90 in1012.5 mb 0.03 in0.8 mm 0.00 in0.0 mm 0.09 in2.3 mm
05:20 PM 64.0°F17.8°C 61.9°F16.6°C 93% Calm Calm 1.0 mph1.6 kmh 29.90 in1012.5 mb 0.03 in0.8 mm 0.00 in0.0 mm 0.09 in2.3 mm
05:25 PM 63.9°F17.7°C 61.9°F16.6°C 93% Calm Calm 1.0 mph1.6 kmh 29.91 in1012.9 mb 0.02 in0.5 mm 0.00 in0.0 mm 0.09 in2.3 mm
05:30 PM 63.9°F17.7°C 61.9°F16.6°C 93% Calm Calm -- 29.90 in1012.5 mb 0.02 in0.5 mm 0.00 in0.0 mm 0.09 in2.3 mm
05:35 PM 63.9°F17.7°C 61.5°F16.4°C 92% Calm Calm -- 29.91 in1012.9 mb 0.02 in0.5 mm 0.00 in0.0 mm 0.09 in2.3 mm
05:40 PM 63.9°F17.7°C 61.5°F16.4°C 92% Calm Calm -- 29.91 in1012.9 mb 0.02 in0.5 mm 0.00 in0.0 mm 0.09 in2.3 mm
05:45 PM 63.9°F17.7°C 61.5°F16.4°C 92% Calm Calm -- 29.91 in1012.9 mb 0.02 in0.5 mm 0.00 in0.0 mm 0.09 in2.3 mm
05:50 PM 63.9°F17.7°C 61.5°F16.4°C 92% Calm Calm -- 29.91 in1012.9 mb 0.01 in0.3 mm 0.00 in0.0 mm 0.09 in2.3 mm
05:55 PM 63.7°F17.6°C 61.3°F16.3°C 92% Calm Calm -- 29.91 in1012.9 mb 0.01 in0.3 mm 0.00 in0.0 mm 0.09 in2.3 mm
06:00 PM 63.7°F17.6°C 61.3°F16.3°C 92% Calm Calm -- 29.91 in1012.9 mb 0.01 in0.3 mm 0.00 in0.0 mm 0.09 in2.3 mm
06:05 PM 63.5°F17.5°C 61.2°F16.2°C 92% Calm Calm -- 29.90 in1012.5 mb 0.00 in0.0 mm 0.00 in0.0 mm 0.09 in2.3 mm
06:10 PM 63.3°F17.4°C 61.0°F16.1°C 92% Calm Calm -- 29.90 in1012.5 mb 0.00 in0.0 mm 0.00 in0.0 mm 0.09 in2.3 mm
06:15 PM 63.3°F17.4°C 61.0°F16.1°C 92% Calm Calm -- 29.90 in1012.5 mb 0.00 in0.0 mm 0.00 in0.0 mm 0.09 in2.3 mm
06:20 PM 63.3°F17.4°C 61.0°F16.1°C 92% Calm Calm -- 29.90 in1012.5 mb 0.00 in0.0 mm 0.00 in0.0 mm 0.09 in2.3 mm
06:25 PM 63.3°F17.4°C 61.0°F16.1°C 92% Calm Calm -- 29.90 in1012.5 mb 0.00 in0.0 mm 0.00 in0.0 mm 0.09 in2.3 mm
06:30 PM 63.5°F17.5°C 61.2°F16.2°C 92% Calm Calm -- 29.90 in1012.5 mb 0.00 in0.0 mm 0.00 in0.0 mm 0.09 in2.3 mm
06:35 PM 63.7°F17.6°C 61.3°F16.3°C 92% Calm Calm -- 29.90 in1012.5 mb 0.00 in0.0 mm 0.00 in0.0 mm 0.09 in2.3 mm
06:40 PM 63.7°F17.6°C 61.3°F16.3°C 92% Calm Calm -- 29.90 in1012.5 mb 0.00 in0.0 mm 0.00 in0.0 mm 0.09 in2.3 mm
06:45 PM 63.7°F17.6°C 61.2°F16.2°C 92% Calm Calm -- 29.90 in1012.5 mb 0.00 in0.0 mm 0.00 in0.0 mm 0.09 in2.3 mm
06:50 PM 63.5°F17.5°C 61.2°F16.2°C 92% Calm Calm 1.0 mph1.6 kmh 29.90 in1012.5 mb 0.00 in0.0 mm 0.00 in0.0 mm 0.09 in2.3 mm
06:55 PM 63.3°F17.4°C 61.0°F16.1°C 92% Calm Calm 1.0 mph1.6 kmh 29.90 in1012.5 mb 0.00 in0.0 mm 0.00 in0.0 mm 0.09 in2.3 mm
07:00 PM 63.7°F17.6°C 61.2°F16.2°C 92% Calm Calm -- 29.90 in1012.5 mb 0.00 in0.0 mm 0.00 in0.0 mm 0.09 in2.3 mm
07:05 PM 63.7°F17.6°C 61.7°F16.5°C 93% Calm Calm -- 29.90 in1012.5 mb 0.00 in0.0 mm 0.00 in0.0 mm 0.09 in2.3 mm
07:10 PM 63.7°F17.6°C 61.3°F16.3°C 92% Calm Calm -- 29.90 in1012.5 mb 0.00 in0.0 mm 0.00 in0.0 mm 0.09 in2.3 mm
07:15 PM 63.9°F17.7°C 61.7°F16.5°C 93% Calm Calm -- 29.91 in1012.9 mb 0.00 in0.0 mm 0.00 in0.0 mm 0.09 in2.3 mm
07:20 PM 63.7°F17.6°C 61.7°F16.5°C 93% Calm Calm -- 29.91 in1012.9 mb 0.00 in0.0 mm 0.00 in0.0 mm 0.09 in2.3 mm
07:25 PM 63.7°F17.6°C 61.3°F16.3°C 92% Calm Calm -- 29.91 in1012.9 mb 0.00 in0.0 mm 0.00 in0.0 mm 0.09 in2.3 mm
07:30 PM 63.5°F17.5°C 61.2°F16.2°C 92% Calm Calm -- 29.91 in1012.9 mb 0.00 in0.0 mm 0.00 in0.0 mm 0.09 in2.3 mm
07:35 PM 63.3°F17.4°C 61.0°F16.1°C 92% Calm Calm -- 29.91 in1012.9 mb 0.00 in0.0 mm 0.00 in0.0 mm 0.09 in2.3 mm
07:40 PM 63.3°F17.4°C 61.0°F16.1°C 92% Calm Calm -- 29.91 in1012.9 mb 0.00 in0.0 mm 0.00 in0.0 mm 0.09 in2.3 mm
07:45 PM 63.3°F17.4°C 61.0°F16.1°C 92% Calm Calm -- 29.91 in1012.9 mb 0.00 in0.0 mm 0.00 in0.0 mm 0.09 in2.3 mm
07:50 PM 63.1°F17.3°C 61.2°F16.2°C 93% Calm Calm -- 29.91 in1012.9 mb 0.00 in0.0 mm 0.00 in0.0 mm 0.09 in2.3 mm
07:55 PM 63.1°F17.3°C 61.0°F16.1°C 93% Calm Calm -- 29.91 in1012.9 mb 0.00 in0.0 mm 0.00 in0.0 mm 0.09 in2.3 mm
08:00 PM 63.0°F17.2°C 61.0°F16.1°C 93% Calm Calm -- 29.91 in1012.9 mb 0.00 in0.0 mm 0.00 in0.0 mm 0.09 in2.3 mm
08:05 PM 62.8°F17.1°C 60.8°F16.0°C 93% Calm Calm -- 29.91 in1012.9 mb 0.00 in0.0 mm 0.00 in0.0 mm 0.09 in2.3 mm
08:10 PM 62.4°F16.9°C 60.4°F15.8°C 93% Calm Calm -- 29.91 in1012.9 mb 0.00 in0.0 mm 0.00 in0.0 mm 0.09 in2.3 mm
08:15 PM 62.2°F16.8°C 60.3°F15.7°C 93% Calm Calm -- 29.91 in1012.9 mb 0.00 in0.0 mm 0.00 in0.0 mm 0.09 in2.3 mm
08:20 PM 62.2°F16.8°C 60.4°F15.8°C 94% Calm Calm -- 29.91 in1012.9 mb 0.00 in0.0 mm 0.00 in0.0 mm 0.09 in2.3 mm
08:25 PM 62.1°F16.7°C 60.4°F15.8°C 94% Calm Calm -- 29.91 in1012.9 mb 0.00 in0.0 mm 0.00 in0.0 mm 0.09 in2.3 mm
08:30 PM 62.1°F16.7°C 60.4°F15.8°C 94% Calm Calm -- 29.91 in1012.9 mb 0.00 in0.0 mm 0.00 in0.0 mm 0.09 in2.3 mm
08:35 PM 62.1°F16.7°C 60.3°F15.7°C 94% Calm Calm -- 29.91 in1012.9 mb 0.00 in0.0 mm 0.00 in0.0 mm 0.09 in2.3 mm
08:40 PM 62.1°F16.7°C 60.3°F15.7°C 94% Calm Calm -- 29.91 in1012.9 mb 0.00 in0.0 mm 0.00 in0.0 mm 0.09 in2.3 mm
08:45 PM 62.1°F16.7°C 60.3°F15.7°C 94% Calm Calm -- 29.91 in1012.9 mb 0.00 in0.0 mm 0.00 in0.0 mm 0.09 in2.3 mm
08:50 PM 61.9°F16.6°C 60.1°F15.6°C 94% Calm Calm -- 29.91 in1012.9 mb 0.00 in0.0 mm 0.00 in0.0 mm 0.09 in2.3 mm
08:55 PM 61.9°F16.6°C 60.1°F15.6°C 94% Calm Calm -- 29.91 in1012.9 mb 0.00 in0.0 mm 0.00 in0.0 mm 0.09 in2.3 mm
09:00 PM 61.9°F16.6°C 60.4°F15.8°C 95% Calm Calm -- 29.91 in1012.9 mb 0.00 in0.0 mm 0.00 in0.0 mm 0.09 in2.3 mm
09:05 PM 61.9°F16.6°C 60.4°F15.8°C 95% Calm Calm -- 29.91 in1012.9 mb 0.00 in0.0 mm 0.00 in0.0 mm 0.09 in2.3 mm
09:10 PM 61.7°F16.5°C 60.3°F15.7°C 95% Calm Calm -- 29.91 in1012.9 mb 0.00 in0.0 mm 0.00 in0.0 mm 0.09 in2.3 mm
09:15 PM 61.5°F16.4°C 60.1°F15.6°C 95% Calm Calm -- 29.91 in1012.9 mb 0.00 in0.0 mm 0.00 in0.0 mm 0.09 in2.3 mm
09:20 PM 61.3°F16.3°C 59.9°F15.5°C 95% Calm Calm -- 29.91 in1012.9 mb 0.00 in0.0 mm 0.00 in0.0 mm 0.09 in2.3 mm
09:25 PM 61.2°F16.2°C 59.7°F15.4°C 95% Calm Calm -- 29.91 in1012.9 mb 0.00 in0.0 mm 0.00 in0.0 mm 0.09 in2.3 mm
09:30 PM 61.0°F16.1°C 59.5°F15.3°C 95% Calm Calm -- 29.91 in1012.9 mb 0.00 in0.0 mm 0.00 in0.0 mm 0.09 in2.3 mm
09:35 PM 60.6°F15.9°C 59.2°F15.1°C 95% Calm Calm -- 29.91 in1012.9 mb 0.00 in0.0 mm 0.00 in0.0 mm 0.09 in2.3 mm
09:40 PM 60.6°F15.9°C 59.2°F15.1°C 95% Calm Calm -- 29.91 in1012.9 mb 0.00 in0.0 mm 0.00 in0.0 mm 0.09 in2.3 mm
09:45 PM 60.4°F15.8°C 59.0°F15.0°C 95% Calm Calm -- 29.91 in1012.9 mb 0.00 in0.0 mm 0.00 in0.0 mm 0.09 in2.3 mm
09:50 PM 60.3°F15.7°C 58.8°F14.9°C 95% Calm Calm -- 29.91 in1012.9 mb 0.00 in0.0 mm 0.00 in0.0 mm 0.09 in2.3 mm
09:55 PM 60.3°F15.7°C 58.8°F14.9°C 95% Calm Calm -- 29.91 in1012.9 mb 0.00 in0.0 mm 0.00 in0.0 mm 0.09 in2.3 mm
10:00 PM 60.1°F15.6°C 58.6°F14.8°C 95% Calm Calm -- 29.91 in1012.9 mb 0.00 in0.0 mm 0.00 in0.0 mm 0.09 in2.3 mm
10:05 PM 59.9°F15.5°C 58.5°F14.7°C 95% Calm Calm -- 29.91 in1012.9 mb 0.00 in0.0 mm 0.00 in0.0 mm 0.09 in2.3 mm
10:10 PM 59.5°F15.3°C 58.1°F14.5°C 95% Calm Calm -- 29.91 in1012.9 mb 0.00 in0.0 mm 0.00 in0.0 mm 0.09 in2.3 mm
10:15 PM 59.5°F15.3°C 58.1°F14.5°C 95% Calm Calm -- 29.91 in1012.9 mb 0.00 in0.0 mm 0.00 in0.0 mm 0.09 in2.3 mm
10:20 PM 59.4°F15.2°C 57.9°F14.4°C 95% Calm Calm -- 29.91 in1012.9 mb 0.00 in0.0 mm 0.00 in0.0 mm 0.09 in2.3 mm
10:25 PM 59.4°F15.2°C 58.3°F14.6°C 96% Calm Calm -- 29.91 in1012.9 mb 0.00 in0.0 mm 0.00 in0.0 mm 0.09 in2.3 mm
10:30 PM 59.4°F15.2°C 58.1°F14.5°C 96% Calm Calm -- 29.91 in1012.9 mb 0.00 in0.0 mm 0.00 in0.0 mm 0.09 in2.3 mm
10:35 PM 59.4°F15.2°C 58.1°F14.5°C 96% Calm Calm -- 29.91 in1012.9 mb 0.00 in0.0 mm 0.00 in0.0 mm 0.09 in2.3 mm
10:40 PM 59.4°F15.2°C 58.1°F14.5°C 96% Calm Calm 1.0 mph1.6 kmh 29.91 in1012.9 mb 0.00 in0.0 mm 0.00 in0.0 mm 0.09 in2.3 mm
10:45 PM 59.2°F15.1°C 57.9°F14.4°C 96% Calm Calm 1.0 mph1.6 kmh 29.91 in1012.9 mb 0.00 in0.0 mm 0.00 in0.0 mm 0.09 in2.3 mm
10:50 PM 59.2°F15.1°C 57.9°F14.4°C 96% Calm Calm 1.0 mph1.6 kmh 29.91 in1012.9 mb 0.00 in0.0 mm 0.00 in0.0 mm 0.09 in2.3 mm
10:55 PM 59.0°F15.0°C 57.9°F14.4°C 96% Calm Calm -- 29.91 in1012.9 mb 0.00 in0.0 mm 0.00 in0.0 mm 0.09 in2.3 mm
11:00 PM 59.2°F15.1°C 57.9°F14.4°C 96% Calm Calm 1.0 mph1.6 kmh 29.91 in1012.9 mb 0.00 in0.0 mm 0.00 in0.0 mm 0.08 in2.0 mm
11:05 PM 59.2°F15.1°C 58.1°F14.5°C 96% Calm Calm 2.0 mph3.2 kmh 29.91 in1012.9 mb 0.00 in0.0 mm 0.00 in0.0 mm 0.08 in2.0 mm
11:10 PM 59.4°F15.2°C 58.1°F14.5°C 96% Calm Calm 2.0 mph3.2 kmh 29.92 in1013.2 mb 0.00 in0.0 mm 0.00 in0.0 mm 0.08 in2.0 mm
11:15 PM 59.4°F15.2°C 58.3°F14.6°C 96% Calm Calm 2.0 mph3.2 kmh 29.91 in1012.9 mb 0.00 in0.0 mm 0.00 in0.0 mm 0.08 in2.0 mm
11:20 PM 59.5°F15.3°C 58.3°F14.6°C 96% Calm Calm 1.0 mph1.6 kmh 29.91 in1012.9 mb 0.00 in0.0 mm 0.00 in0.0 mm 0.08 in2.0 mm
11:25 PM 59.5°F15.3°C 58.5°F14.7°C 96% Calm Calm -- 29.91 in1012.9 mb 0.00 in0.0 mm 0.00 in0.0 mm 0.08 in2.0 mm
11:30 PM 59.5°F15.3°C 58.3°F14.6°C 96% Calm Calm 2.0 mph3.2 kmh 29.92 in1013.2 mb 0.00 in0.0 mm 0.00 in0.0 mm 0.08 in2.0 mm
11:35 PM 59.5°F15.3°C 58.5°F14.7°C 96% Calm Calm 2.0 mph3.2 kmh 29.92 in1013.2 mb 0.00 in0.0 mm 0.00 in0.0 mm 0.08 in2.0 mm
11:40 PM 59.7°F15.4°C 58.6°F14.8°C 96% Calm Calm 2.0 mph3.2 kmh 29.92 in1013.2 mb 0.00 in0.0 mm 0.00 in0.0 mm 0.08 in2.0 mm
11:45 PM 59.7°F15.4°C 58.6°F14.8°C 96% Calm Calm 3.0 mph4.8 kmh 29.92 in1013.2 mb 0.00 in0.0 mm 0.00 in0.0 mm 0.08 in2.0 mm
11:50 PM 59.7°F15.4°C 58.6°F14.8°C 96% Calm Calm 3.0 mph4.8 kmh 29.92 in1013.2 mb 0.00 in0.0 mm 0.00 in0.0 mm 0.08 in2.0 mm
11:55 PM 59.5°F15.3°C 58.5°F14.7°C 96% Calm Calm 3.0 mph4.8 kmh 29.91 in1012.9 mb 0.01 in0.3 mm 0.12 in3.0 mm 0.01 in0.3 mm